createdAt,value
2018-06-03T00:00:05.458Z,30.98
2018-06-03T00:00:18.005Z,30.98
2018-06-03T00:00:30.455Z,30.98
2018-06-03T00:00:42.897Z,30.98
2018-06-03T00:00:55.316Z,30.98
2018-06-03T00:01:07.738Z,30.98
2018-06-03T00:01:20.322Z,30.98
2018-06-03T00:01:32.749Z,30.98
2018-06-03T00:01:45.174Z,30.98
2018-06-03T00:01:57.617Z,30.98
2018-06-03T00:02:10.038Z,30.98
2018-06-03T00:02:22.466Z,30.98
2018-06-03T00:02:34.894Z,30.98
2018-06-03T00:02:47.470Z,32.7
2018-06-03T00:02:59.903Z,32.7
2018-06-03T00:03:12.337Z,32.7
2018-06-03T00:03:24.743Z,32.7
2018-06-03T00:03:37.177Z,32.7
2018-06-03T00:03:49.600Z,32.7
2018-06-03T00:04:02.129Z,32.7
2018-06-03T00:04:14.546Z,32.7
2018-06-03T00:04:26.975Z,32.7
2018-06-03T00:04:39.408Z,32.7
2018-06-03T00:04:51.880Z,32.7
2018-06-03T00:05:04.306Z,32.7
2018-06-03T00:05:16.723Z,32.7
2018-06-03T00:05:29.162Z,32.7
2018-06-03T00:05:41.580Z,32.7
2018-06-03T00:05:54.008Z,32.7
2018-06-03T00:06:06.446Z,32.7
2018-06-03T00:06:18.883Z,32.7
2018-06-03T00:06:31.317Z,32.7
2018-06-03T00:06:43.741Z,32.7
2018-06-03T00:06:56.188Z,32.7
2018-06-03T00:07:08.630Z,32.7
2018-06-03T00:07:21.050Z,32.7
2018-06-03T00:07:33.518Z,32.7
2018-06-03T00:07:45.939Z,32.7
2018-06-03T00:07:58.363Z,32.7
2018-06-03T00:08:10.761Z,32.7
2018-06-03T00:08:23.187Z,32.7
2018-06-03T00:08:35.610Z,32.7
2018-06-03T00:08:48.058Z,32.7
2018-06-03T00:09:00.494Z,32.7
2018-06-03T00:09:12.918Z,32.7
2018-06-03T00:09:25.363Z,32.7
2018-06-03T00:09:37.788Z,32.7
2018-06-03T00:09:50.795Z,32.7
2018-06-03T00:10:03.211Z,32.7
2018-06-03T00:10:15.642Z,32.7
2018-06-03T00:10:28.061Z,32.7
2018-06-03T00:10:40.479Z,32.7
2018-06-03T00:10:57.976Z,32.7
2018-06-03T00:11:10.394Z,32.7
2018-06-03T00:11:22.804Z,32.7
2018-06-03T00:11:35.217Z,32.7
2018-06-03T00:11:47.638Z,32.7
2018-06-03T00:12:00.065Z,32.7
2018-06-03T00:12:12.487Z,32.7
2018-06-03T00:12:24.904Z,32.7
2018-06-03T00:12:37.337Z,32.7
2018-06-03T00:12:49.740Z,31.93
2018-06-03T00:13:02.181Z,31.93
2018-06-03T00:13:14.605Z,31.93
2018-06-03T00:13:27.068Z,31.93
2018-06-03T00:13:39.488Z,31.93
2018-06-03T00:13:51.916Z,31.93
2018-06-03T00:14:04.320Z,31.93
2018-06-03T00:14:16.792Z,31.93
2018-06-03T00:14:29.210Z,31.93
2018-06-03T00:14:41.642Z,31.93
2018-06-03T00:14:54.094Z,31.93
2018-06-03T00:15:06.536Z,31.93
2018-06-03T00:15:18.939Z,31.93
2018-06-03T00:15:31.349Z,31.93
2018-06-03T00:15:43.751Z,31.93
2018-06-03T00:15:56.241Z,31.93
2018-06-03T00:16:08.706Z,31.93
2018-06-03T00:16:21.127Z,31.93
2018-06-03T00:16:33.530Z,31.93
2018-06-03T00:16:45.948Z,31.93
2018-06-03T00:16:58.384Z,31.93
2018-06-03T00:17:10.806Z,31.93
2018-06-03T00:17:23.232Z,31.93
2018-06-03T00:17:35.654Z,31.93
2018-06-03T00:17:48.083Z,31.93
2018-06-03T00:18:00.520Z,31.93
2018-06-03T00:18:13.180Z,31.93
2018-06-03T00:18:25.588Z,31.93
2018-06-03T00:18:38.011Z,31.93
2018-06-03T00:18:50.449Z,31.93
2018-06-03T00:19:02.873Z,31.93
2018-06-03T00:19:15.353Z,31.93
2018-06-03T00:19:27.776Z,31.93
2018-06-03T00:19:40.210Z,31.93
2018-06-03T00:19:52.639Z,31.93
2018-06-03T00:20:05.060Z,31.93
2018-06-03T00:20:17.480Z,31.93
2018-06-03T00:20:29.899Z,31.93
2018-06-03T00:20:42.326Z,31.93
2018-06-03T00:20:54.760Z,31.93
2018-06-03T00:21:07.192Z,31.93
2018-06-03T00:21:19.618Z,31.93
2018-06-03T00:21:32.038Z,31.93
2018-06-03T00:21:44.457Z,31.93
2018-06-03T00:21:56.876Z,31.93
2018-06-03T00:22:09.306Z,31.93
2018-06-03T00:22:21.731Z,31.93
2018-06-03T00:22:34.174Z,31.93
2018-06-03T00:22:46.588Z,32.95
2018-06-03T00:22:59.004Z,32.95
2018-06-03T00:23:11.451Z,32.95
2018-06-03T00:23:23.857Z,32.95
2018-06-03T00:23:36.283Z,32.95
2018-06-03T00:23:48.720Z,32.95
2018-06-03T00:24:01.177Z,32.95
2018-06-03T00:24:13.603Z,32.95
2018-06-03T00:24:26.036Z,32.95
2018-06-03T00:24:38.491Z,32.95
2018-06-03T00:24:50.955Z,32.95
2018-06-03T00:25:03.385Z,32.95
2018-06-03T00:25:15.796Z,32.95
2018-06-03T00:25:28.228Z,32.95
2018-06-03T00:25:40.645Z,32.95
2018-06-03T00:25:53.073Z,32.95
2018-06-03T00:26:05.920Z,32.95
2018-06-03T00:26:18.952Z,32.95
2018-06-03T00:26:31.594Z,32.95
2018-06-03T00:26:44.026Z,32.95
2018-06-03T00:26:56.459Z,32.95
2018-06-03T00:27:08.899Z,32.95
2018-06-03T00:27:21.303Z,32.95
2018-06-03T00:27:33.732Z,32.95
2018-06-03T00:27:46.146Z,32.95
2018-06-03T00:27:58.542Z,32.95
2018-06-03T00:28:10.988Z,32.95
2018-06-03T00:28:23.545Z,32.95
2018-06-03T00:28:35.974Z,32.95
2018-06-03T00:28:48.401Z,32.95
2018-06-03T00:29:00.835Z,32.95
2018-06-03T00:29:13.270Z,32.95
2018-06-03T00:29:25.735Z,32.95
2018-06-03T00:29:38.155Z,32.95
2018-06-03T00:29:50.584Z,32.95
2018-06-03T00:30:03.149Z,32.95
2018-06-03T00:30:15.543Z,32.95
2018-06-03T00:30:27.972Z,32.95
2018-06-03T00:30:40.403Z,32.95
2018-06-03T00:30:52.819Z,32.95
2018-06-03T00:31:05.236Z,32.95
2018-06-03T00:31:17.641Z,32.95
2018-06-03T00:31:30.041Z,32.95
2018-06-03T00:31:42.451Z,32.95
2018-06-03T00:31:54.863Z,32.95
2018-06-03T00:32:07.296Z,32.95
2018-06-03T00:32:19.698Z,32.95
2018-06-03T00:32:32.109Z,32.95
2018-06-03T00:32:44.533Z,32.95
2018-06-03T00:32:56.949Z,34.89
2018-06-03T00:33:09.385Z,34.89
2018-06-03T00:33:21.803Z,34.89
2018-06-03T00:33:34.223Z,34.89
2018-06-03T00:33:46.665Z,34.89
2018-06-03T00:33:59.065Z,34.89
2018-06-03T00:34:11.476Z,34.89
2018-06-03T00:34:23.912Z,34.89
2018-06-03T00:34:36.336Z,34.89
2018-06-03T00:34:48.743Z,34.89
2018-06-03T00:35:01.258Z,34.89
2018-06-03T00:35:13.780Z,34.89
2018-06-03T00:35:26.197Z,34.89
2018-06-03T00:35:38.612Z,34.89
2018-06-03T00:35:51.045Z,34.89
2018-06-03T00:36:03.452Z,34.89
2018-06-03T00:36:15.851Z,34.89
2018-06-03T00:36:28.273Z,34.89
2018-06-03T00:36:40.684Z,34.89
2018-06-03T00:36:53.116Z,34.89
2018-06-03T00:37:05.527Z,34.89
2018-06-03T00:37:17.931Z,34.89
2018-06-03T00:37:30.339Z,34.89
2018-06-03T00:37:42.738Z,34.89
2018-06-03T00:37:55.162Z,34.89
2018-06-03T00:38:07.593Z,34.89
2018-06-03T00:38:20.024Z,34.89
2018-06-03T00:38:32.467Z,34.89
2018-06-03T00:38:44.897Z,34.89
2018-06-03T00:38:57.304Z,34.89
2018-06-03T00:39:09.731Z,34.89
2018-06-03T00:39:22.174Z,34.89
2018-06-03T00:39:34.613Z,34.89
2018-06-03T00:39:47.035Z,34.89
2018-06-03T00:39:59.499Z,34.89
2018-06-03T00:40:11.925Z,34.89
2018-06-03T00:40:24.635Z,34.89
2018-06-03T00:40:37.537Z,34.89
2018-06-03T00:40:49.943Z,34.89
2018-06-03T00:41:02.351Z,34.89
2018-06-03T00:41:14.942Z,34.89
2018-06-03T00:41:27.356Z,34.89
2018-06-03T00:41:39.764Z,34.89
2018-06-03T00:41:52.178Z,34.89
2018-06-03T00:42:04.619Z,34.89
2018-06-03T00:42:17.054Z,34.89
2018-06-03T00:42:29.465Z,34.89
2018-06-03T00:42:41.883Z,34.89
2018-06-03T00:42:54.306Z,34.19
2018-06-03T00:43:06.717Z,34.19
2018-06-03T00:43:19.128Z,34.19
2018-06-03T00:43:31.569Z,34.19
2018-06-03T00:43:43.993Z,34.19
2018-06-03T00:43:56.476Z,34.19
2018-06-03T00:44:08.920Z,34.19
2018-06-03T00:44:21.535Z,34.19
2018-06-03T00:44:34.040Z,34.19
2018-06-03T00:44:46.462Z,34.19
2018-06-03T00:44:58.879Z,34.19
2018-06-03T00:45:11.298Z,34.19
2018-06-03T00:45:23.748Z,34.19
2018-06-03T00:45:36.152Z,34.19
2018-06-03T00:45:48.601Z,34.19
2018-06-03T00:46:01.039Z,34.19
2018-06-03T00:46:13.462Z,34.19
2018-06-03T00:46:25.858Z,34.19
2018-06-03T00:46:38.313Z,34.19
2018-06-03T00:46:50.714Z,34.19
2018-06-03T00:47:03.135Z,34.19
2018-06-03T00:47:15.563Z,34.19
2018-06-03T00:47:28.007Z,34.19
2018-06-03T00:47:40.421Z,34.19
2018-06-03T00:47:52.839Z,34.19
2018-06-03T00:48:05.277Z,34.19
2018-06-03T00:48:17.709Z,34.19
2018-06-03T00:48:30.283Z,34.19
2018-06-03T00:48:42.710Z,34.19
2018-06-03T00:48:55.119Z,34.19
2018-06-03T00:49:07.568Z,34.19
2018-06-03T00:49:19.988Z,34.19
2018-06-03T00:49:32.396Z,34.19
2018-06-03T00:49:44.819Z,34.19
2018-06-03T00:49:57.264Z,34.19
2018-06-03T00:50:09.718Z,34.19
2018-06-03T00:50:22.113Z,34.19
2018-06-03T00:50:34.523Z,34.19
2018-06-03T00:50:46.954Z,34.19
2018-06-03T00:50:59.361Z,34.19
2018-06-03T00:51:11.822Z,34.19
2018-06-03T00:51:24.247Z,34.19
2018-06-03T00:51:36.699Z,34.19
2018-06-03T00:51:49.179Z,34.19
2018-06-03T00:52:01.596Z,34.19
2018-06-03T00:52:14.015Z,34.19
2018-06-03T00:52:26.435Z,34.19
2018-06-03T00:52:39.182Z,34.19
2018-06-03T00:52:51.705Z,34.55
2018-06-03T00:53:04.154Z,34.55
2018-06-03T00:53:16.573Z,34.55
2018-06-03T00:53:28.985Z,34.55
2018-06-03T00:53:41.408Z,34.55
2018-06-03T00:53:53.822Z,34.55
2018-06-03T00:54:06.435Z,34.55
2018-06-03T00:54:18.865Z,34.55
2018-06-03T00:54:31.307Z,34.55
2018-06-03T00:54:43.723Z,34.55
2018-06-03T00:54:56.135Z,34.55
2018-06-03T00:55:08.547Z,34.55
2018-06-03T00:55:20.962Z,34.55
2018-06-03T00:55:33.363Z,34.55
2018-06-03T00:55:45.780Z,34.55
2018-06-03T00:55:58.194Z,34.55
2018-06-03T00:56:10.606Z,34.55
2018-06-03T00:56:23.037Z,34.55
2018-06-03T00:56:35.462Z,34.55
2018-06-03T00:56:47.868Z,34.55
2018-06-03T00:57:00.289Z,34.55
2018-06-03T00:57:12.713Z,34.55
2018-06-03T00:57:25.118Z,34.55
2018-06-03T00:57:37.565Z,34.55
2018-06-03T00:57:50.022Z,34.55
2018-06-03T00:58:02.488Z,34.55
2018-06-03T00:58:14.935Z,34.55
2018-06-03T00:58:27.343Z,34.55
2018-06-03T00:58:39.806Z,34.55
2018-06-03T00:58:52.231Z,34.55
2018-06-03T00:59:04.658Z,34.55
2018-06-03T00:59:17.073Z,34.55
2018-06-03T00:59:29.528Z,34.55
2018-06-03T00:59:41.967Z,34.55
2018-06-03T00:59:54.390Z,34.55
2018-06-03T01:00:06.835Z,34.55
2018-06-03T01:00:19.272Z,34.55
2018-06-03T01:00:31.700Z,34.55
2018-06-03T01:00:44.179Z,34.55
2018-06-03T01:00:56.619Z,34.55
2018-06-03T01:01:09.069Z,34.55
2018-06-03T01:01:21.540Z,34.55
2018-06-03T01:01:33.973Z,34.55
2018-06-03T01:01:46.401Z,34.55
2018-06-03T01:01:58.817Z,34.55
2018-06-03T01:02:11.285Z,34.55
2018-06-03T01:02:23.718Z,34.55
2018-06-03T01:02:36.163Z,34.55
2018-06-03T01:02:48.602Z,35.02
2018-06-03T01:03:01.013Z,35.02
2018-06-03T01:03:13.644Z,35.02
2018-06-03T01:03:26.053Z,35.02
2018-06-03T01:03:38.479Z,35.02
2018-06-03T01:03:50.915Z,35.02
2018-06-03T01:04:03.354Z,35.02
2018-06-03T01:04:15.776Z,35.02
2018-06-03T01:04:28.248Z,35.02
2018-06-03T01:04:40.729Z,35.02
2018-06-03T01:04:53.204Z,35.02
2018-06-03T01:05:05.648Z,35.02
2018-06-03T01:05:18.089Z,35.02
2018-06-03T01:05:30.515Z,35.02
2018-06-03T01:05:42.951Z,35.02
2018-06-03T01:05:55.379Z,35.02
2018-06-03T01:06:07.790Z,35.02
2018-06-03T01:06:20.326Z,35.02
2018-06-03T01:06:32.747Z,35.02
2018-06-03T01:06:45.176Z,35.02
2018-06-03T01:06:57.593Z,35.02
2018-06-03T01:07:10.026Z,35.02
2018-06-03T01:07:22.431Z,35.02
2018-06-03T01:07:34.856Z,35.02
2018-06-03T01:07:47.263Z,35.02
2018-06-03T01:07:59.691Z,35.02
2018-06-03T01:08:12.137Z,35.02
2018-06-03T01:08:24.551Z,35.02
2018-06-03T01:08:37.044Z,35.02
2018-06-03T01:08:49.473Z,35.02
2018-06-03T01:09:01.946Z,35.02
2018-06-03T01:09:14.374Z,35.02
2018-06-03T01:09:26.844Z,35.02
2018-06-03T01:09:39.273Z,35.02
2018-06-03T01:09:51.706Z,35.02
2018-06-03T01:10:04.135Z,35.02
2018-06-03T01:10:16.585Z,35.02
2018-06-03T01:10:29.022Z,35.02
2018-06-03T01:10:41.430Z,35.02
2018-06-03T01:10:54.196Z,35.02
2018-06-03T01:11:06.604Z,35.02
2018-06-03T01:11:19.022Z,35.02
2018-06-03T01:11:31.461Z,35.02
2018-06-03T01:11:43.942Z,35.02
2018-06-03T01:11:56.377Z,35.02
2018-06-03T01:12:08.831Z,35.02
2018-06-03T01:12:21.250Z,35.02
2018-06-03T01:12:33.649Z,35.02
2018-06-03T01:12:46.080Z,35.02
2018-06-03T01:12:58.494Z,35.92
2018-06-03T01:13:10.936Z,35.92
2018-06-03T01:13:23.356Z,35.92
2018-06-03T01:13:35.785Z,35.92
2018-06-03T01:13:48.213Z,35.92
2018-06-03T01:14:00.629Z,35.92
2018-06-03T01:14:13.069Z,35.92
2018-06-03T01:14:25.581Z,35.92
2018-06-03T01:14:38.045Z,35.92
2018-06-03T01:14:50.471Z,35.92
2018-06-03T01:15:02.890Z,35.92
2018-06-03T01:15:15.297Z,35.92
2018-06-03T01:15:27.738Z,35.92
2018-06-03T01:15:40.152Z,35.92
2018-06-03T01:15:52.619Z,35.92
2018-06-03T01:16:05.046Z,35.92
2018-06-03T01:16:17.469Z,35.92
2018-06-03T01:16:29.876Z,35.92
2018-06-03T01:16:42.323Z,35.92
2018-06-03T01:16:54.739Z,35.92
2018-06-03T01:17:07.221Z,35.92
2018-06-03T01:17:19.636Z,35.92
2018-06-03T01:17:32.054Z,35.92
2018-06-03T01:17:44.461Z,35.92
2018-06-03T01:17:56.889Z,35.92
2018-06-03T01:18:09.448Z,35.92
2018-06-03T01:18:21.856Z,35.92
2018-06-03T01:18:34.291Z,35.92
2018-06-03T01:18:46.699Z,35.92
2018-06-03T01:18:59.183Z,35.92
2018-06-03T01:19:11.592Z,35.92
2018-06-03T01:19:24.012Z,35.92
2018-06-03T01:19:36.440Z,35.92
2018-06-03T01:19:48.836Z,35.92
2018-06-03T01:20:01.237Z,35.92
2018-06-03T01:20:13.640Z,35.92
2018-06-03T01:20:26.041Z,35.92
2018-06-03T01:20:38.458Z,35.92
2018-06-03T01:20:50.884Z,35.92
2018-06-03T01:21:03.297Z,35.92
2018-06-03T01:21:15.706Z,35.92
2018-06-03T01:21:28.128Z,35.92
2018-06-03T01:21:40.540Z,35.92
2018-06-03T01:21:52.962Z,35.92
2018-06-03T01:22:05.472Z,35.92
2018-06-03T01:22:17.876Z,35.92
2018-06-03T01:22:30.276Z,35.92
2018-06-03T01:22:42.702Z,35.92
2018-06-03T01:22:55.109Z,36.78
2018-06-03T01:23:07.601Z,36.78
2018-06-03T01:23:20.083Z,36.78
2018-06-03T01:23:32.503Z,36.78
2018-06-03T01:23:44.947Z,36.78
2018-06-03T01:23:57.374Z,36.78
2018-06-03T01:24:09.793Z,36.78
2018-06-03T01:24:22.213Z,36.78
2018-06-03T01:24:34.628Z,36.78
2018-06-03T01:24:47.041Z,36.78
2018-06-03T01:24:59.460Z,36.78
2018-06-03T01:25:11.887Z,36.78
2018-06-03T01:25:24.309Z,36.78
2018-06-03T01:25:36.765Z,36.78
2018-06-03T01:25:49.207Z,36.78
2018-06-03T01:26:01.633Z,36.78
2018-06-03T01:26:14.080Z,36.78
2018-06-03T01:26:26.553Z,36.78
2018-06-03T01:26:38.981Z,36.78
2018-06-03T01:26:51.397Z,36.78
2018-06-03T01:27:03.805Z,36.78
2018-06-03T01:27:16.229Z,36.78
2018-06-03T01:27:28.652Z,36.78
2018-06-03T01:27:41.097Z,36.78
2018-06-03T01:27:53.507Z,36.78
2018-06-03T01:28:05.927Z,36.78
2018-06-03T01:28:18.341Z,36.78
2018-06-03T01:28:30.934Z,36.78
2018-06-03T01:28:43.363Z,36.78
2018-06-03T01:28:55.782Z,36.78
2018-06-03T01:29:08.196Z,36.78
2018-06-03T01:29:20.650Z,36.78
2018-06-03T01:29:33.180Z,36.78
2018-06-03T01:29:45.639Z,36.78
2018-06-03T01:29:58.057Z,36.78
2018-06-03T01:30:10.617Z,36.78
2018-06-03T01:30:23.040Z,36.78
2018-06-03T01:30:35.467Z,36.78
2018-06-03T01:30:47.862Z,36.78
2018-06-03T01:31:00.276Z,36.78
2018-06-03T01:31:12.694Z,36.78
2018-06-03T01:31:25.107Z,36.78
2018-06-03T01:31:37.525Z,36.78
2018-06-03T01:31:49.950Z,36.78
2018-06-03T01:32:02.367Z,36.78
2018-06-03T01:32:14.797Z,36.78
2018-06-03T01:32:27.212Z,36.78
2018-06-03T01:32:39.633Z,36.78
2018-06-03T01:32:52.057Z,36.77
2018-06-03T01:33:04.521Z,36.77
2018-06-03T01:33:16.935Z,36.77
2018-06-03T01:33:29.367Z,36.77
2018-06-03T01:33:41.794Z,36.77
2018-06-03T01:33:54.226Z,36.77
2018-06-03T01:34:06.654Z,36.77
2018-06-03T01:34:19.104Z,36.77
2018-06-03T01:34:31.526Z,36.77
2018-06-03T01:34:43.945Z,36.77
2018-06-03T01:34:56.377Z,36.77
2018-06-03T01:35:08.891Z,36.77
2018-06-03T01:35:21.312Z,36.77
2018-06-03T01:35:33.726Z,36.77
2018-06-03T01:35:46.139Z,36.77
2018-06-03T01:35:58.546Z,36.77
2018-06-03T01:36:10.960Z,36.77
2018-06-03T01:36:23.526Z,36.77
2018-06-03T01:36:35.946Z,36.77
2018-06-03T01:36:48.375Z,36.77
2018-06-03T01:37:00.785Z,36.77
2018-06-03T01:37:13.198Z,36.77
2018-06-03T01:37:25.609Z,36.77
2018-06-03T01:37:38.054Z,36.77
2018-06-03T01:37:50.479Z,36.77
2018-06-03T01:38:02.914Z,36.77
2018-06-03T01:38:15.350Z,36.77
2018-06-03T01:38:27.758Z,36.77
2018-06-03T01:38:40.191Z,36.77
2018-06-03T01:38:52.618Z,36.77
2018-06-03T01:39:05.035Z,36.77
2018-06-03T01:39:17.452Z,36.77
2018-06-03T01:39:29.918Z,36.77
2018-06-03T01:39:42.364Z,36.77
2018-06-03T01:39:54.849Z,36.77
2018-06-03T01:40:07.289Z,36.77
2018-06-03T01:40:19.689Z,36.77
2018-06-03T01:40:32.095Z,36.77
2018-06-03T01:40:44.498Z,36.77
2018-06-03T01:40:56.917Z,36.77
2018-06-03T01:41:09.520Z,36.77
2018-06-03T01:41:21.958Z,36.77
2018-06-03T01:41:34.425Z,36.77
2018-06-03T01:41:46.856Z,36.77
2018-06-03T01:41:59.275Z,36.77
2018-06-03T01:42:11.708Z,36.77
2018-06-03T01:42:24.174Z,36.77
2018-06-03T01:42:36.593Z,36.77
2018-06-03T01:42:48.997Z,36.77
2018-06-03T01:43:01.408Z,36.17
2018-06-03T01:43:13.829Z,36.17
2018-06-03T01:43:26.253Z,36.17
2018-06-03T01:43:38.674Z,36.17
2018-06-03T01:43:51.113Z,36.17
2018-06-03T01:44:03.535Z,36.17
2018-06-03T01:44:15.975Z,36.17
2018-06-03T01:44:28.421Z,36.17
2018-06-03T01:44:40.856Z,36.17
2018-06-03T01:44:53.329Z,36.17
2018-06-03T01:45:05.752Z,36.17
2018-06-03T01:45:18.239Z,36.17
2018-06-03T01:45:30.653Z,36.17
2018-06-03T01:45:43.072Z,36.17
2018-06-03T01:45:55.479Z,36.17
2018-06-03T01:46:07.971Z,36.17
2018-06-03T01:46:20.390Z,36.17
2018-06-03T01:46:32.810Z,36.17
2018-06-03T01:46:45.275Z,36.17
2018-06-03T01:46:57.692Z,36.17
2018-06-03T01:47:10.138Z,36.17
2018-06-03T01:47:22.562Z,36.17
2018-06-03T01:47:35.024Z,36.17
2018-06-03T01:47:47.497Z,36.17
2018-06-03T01:47:59.915Z,36.17
2018-06-03T01:48:12.334Z,36.17
2018-06-03T01:48:25.144Z,36.17
2018-06-03T01:48:37.562Z,36.17
2018-06-03T01:48:49.972Z,36.17
2018-06-03T01:49:02.381Z,36.17
2018-06-03T01:49:14.796Z,36.17
2018-06-03T01:49:27.227Z,36.17
2018-06-03T01:49:39.651Z,36.17
2018-06-03T01:49:52.087Z,36.17
2018-06-03T01:50:04.513Z,36.17
2018-06-03T01:50:16.937Z,36.17
2018-06-03T01:50:29.362Z,36.17
2018-06-03T01:50:41.781Z,36.17
2018-06-03T01:50:54.191Z,36.17
2018-06-03T01:51:06.632Z,36.17
2018-06-03T01:51:19.130Z,36.17
2018-06-03T01:51:31.573Z,36.17
2018-06-03T01:51:44.002Z,36.17
2018-06-03T01:51:56.461Z,36.17
2018-06-03T01:52:08.883Z,36.17
2018-06-03T01:52:21.323Z,36.17
2018-06-03T01:52:33.753Z,36.17
2018-06-03T01:52:46.250Z,36.17
2018-06-03T01:52:58.687Z,35.97
2018-06-03T01:53:11.108Z,35.97
2018-06-03T01:53:23.526Z,35.97
2018-06-03T01:53:35.950Z,35.97
2018-06-03T01:53:48.423Z,35.97
2018-06-03T01:54:00.888Z,35.97
2018-06-03T01:54:13.330Z,35.97
2018-06-03T01:54:25.758Z,35.97
2018-06-03T01:54:38.196Z,35.97
2018-06-03T01:54:50.620Z,35.97
2018-06-03T01:55:03.048Z,35.97
2018-06-03T01:55:15.459Z,35.97
2018-06-03T01:55:27.906Z,35.97
2018-06-03T01:55:40.328Z,35.97
2018-06-03T01:55:52.739Z,35.97
2018-06-03T01:56:05.186Z,35.97
2018-06-03T01:56:17.611Z,35.97
2018-06-03T01:56:30.013Z,35.97
2018-06-03T01:56:42.458Z,35.97
2018-06-03T01:56:54.881Z,35.97
2018-06-03T01:57:07.301Z,35.97
2018-06-03T01:57:19.726Z,35.97
2018-06-03T01:57:32.189Z,35.97
2018-06-03T01:57:44.622Z,35.97
2018-06-03T01:57:57.089Z,35.97
2018-06-03T01:58:09.525Z,35.97
2018-06-03T01:58:21.928Z,35.97
2018-06-03T01:58:34.341Z,35.97
2018-06-03T01:58:46.750Z,35.97
2018-06-03T01:58:59.239Z,35.97
2018-06-03T01:59:11.681Z,35.97
2018-06-03T01:59:24.088Z,35.97
2018-06-03T01:59:36.592Z,35.97
2018-06-03T01:59:49.008Z,35.97
2018-06-03T02:00:01.435Z,35.97
2018-06-03T02:00:13.887Z,35.97
2018-06-03T02:00:26.342Z,35.97
2018-06-03T02:00:38.814Z,35.97
2018-06-03T02:00:51.265Z,35.97
2018-06-03T02:01:03.748Z,35.97
2018-06-03T02:01:16.197Z,35.97
2018-06-03T02:01:28.635Z,35.97
2018-06-03T02:01:41.082Z,35.97
2018-06-03T02:01:53.511Z,35.97
2018-06-03T02:02:05.955Z,35.97
2018-06-03T02:02:18.385Z,35.97
2018-06-03T02:02:30.837Z,35.97
2018-06-03T02:02:43.256Z,35.97
2018-06-03T02:02:55.678Z,35.63
2018-06-03T02:03:08.114Z,35.63
2018-06-03T02:03:20.572Z,35.63
2018-06-03T02:03:32.985Z,35.63
2018-06-03T02:03:45.395Z,35.63
2018-06-03T02:03:58.003Z,35.63
2018-06-03T02:04:10.418Z,35.63
2018-06-03T02:04:22.817Z,35.63
2018-06-03T02:04:35.226Z,35.63
2018-06-03T02:04:47.656Z,35.63
2018-06-03T02:05:00.099Z,35.63
2018-06-03T02:05:12.528Z,35.63
2018-06-03T02:05:24.956Z,35.63
2018-06-03T02:05:37.381Z,35.63
2018-06-03T02:05:49.773Z,35.63
2018-06-03T02:06:02.286Z,35.63
2018-06-03T02:06:14.692Z,35.63
2018-06-03T02:06:27.111Z,35.63
2018-06-03T02:06:39.535Z,35.63
2018-06-03T02:06:51.939Z,35.63
2018-06-03T02:07:04.553Z,35.63
2018-06-03T02:07:16.991Z,35.63
2018-06-03T02:07:29.418Z,35.63
2018-06-03T02:07:41.844Z,35.63
2018-06-03T02:07:54.271Z,35.63
2018-06-03T02:08:06.725Z,35.63
2018-06-03T02:08:19.140Z,35.63
2018-06-03T02:08:31.546Z,35.63
2018-06-03T02:08:43.954Z,35.63
2018-06-03T02:08:56.411Z,35.63
2018-06-03T02:09:08.839Z,35.63
2018-06-03T02:09:21.259Z,35.63
2018-06-03T02:09:33.717Z,35.63
2018-06-03T02:09:46.149Z,35.63
2018-06-03T02:09:58.589Z,35.63
2018-06-03T02:10:11.056Z,35.63
2018-06-03T02:10:23.509Z,35.63
2018-06-03T02:10:35.908Z,35.63
2018-06-03T02:10:48.316Z,35.63
2018-06-03T02:11:01.186Z,35.63
2018-06-03T02:11:13.595Z,35.63
2018-06-03T02:11:26.022Z,35.63
2018-06-03T02:11:38.513Z,35.63
2018-06-03T02:11:50.952Z,35.63
2018-06-03T02:12:03.380Z,35.63
2018-06-03T02:12:15.791Z,35.63
2018-06-03T02:12:28.211Z,35.63
2018-06-03T02:12:40.634Z,35.63
2018-06-03T02:12:53.054Z,32.87
2018-06-03T02:13:05.484Z,32.87
2018-06-03T02:13:17.938Z,32.87
2018-06-03T02:13:30.373Z,32.87
2018-06-03T02:13:42.778Z,32.87
2018-06-03T02:13:55.234Z,32.87
2018-06-03T02:14:07.636Z,32.87
2018-06-03T02:14:20.063Z,32.87
2018-06-03T02:14:32.489Z,32.87
2018-06-03T02:14:44.907Z,32.87
2018-06-03T02:14:57.318Z,32.87
2018-06-03T02:15:09.760Z,32.87
2018-06-03T02:15:22.197Z,32.87
2018-06-03T02:15:34.634Z,32.87
2018-06-03T02:15:47.072Z,32.87
2018-06-03T02:15:59.497Z,32.87
2018-06-03T02:16:11.938Z,32.87
2018-06-03T02:16:24.384Z,32.87
2018-06-03T02:16:36.849Z,32.87
2018-06-03T02:16:49.286Z,32.87
2018-06-03T02:17:01.725Z,32.87
2018-06-03T02:17:14.119Z,32.87
2018-06-03T02:17:26.533Z,32.87
2018-06-03T02:17:38.936Z,32.87
2018-06-03T02:17:51.337Z,32.87
2018-06-03T02:18:03.740Z,32.87
2018-06-03T02:18:16.313Z,32.87
2018-06-03T02:18:28.730Z,32.87
2018-06-03T02:18:41.148Z,32.87
2018-06-03T02:18:53.564Z,32.87
2018-06-03T02:19:05.997Z,32.87
2018-06-03T02:19:18.451Z,32.87
2018-06-03T02:19:30.851Z,32.87
2018-06-03T02:19:43.276Z,32.87
2018-06-03T02:19:55.719Z,32.87
2018-06-03T02:20:08.153Z,32.87
2018-06-03T02:20:20.576Z,32.87
2018-06-03T02:20:33.016Z,32.87
2018-06-03T02:20:45.425Z,32.87
2018-06-03T02:20:57.861Z,32.87
2018-06-03T02:21:10.272Z,32.87
2018-06-03T02:21:22.723Z,32.87
2018-06-03T02:21:35.170Z,32.87
2018-06-03T02:21:47.580Z,32.87
2018-06-03T02:21:59.996Z,32.87
2018-06-03T02:22:12.411Z,32.87
2018-06-03T02:22:24.845Z,32.87
2018-06-03T02:22:37.275Z,32.87
2018-06-03T02:22:49.688Z,32.87
2018-06-03T02:23:02.115Z,37.72
2018-06-03T02:23:14.580Z,37.72
2018-06-03T02:23:27.023Z,37.72
2018-06-03T02:23:39.455Z,37.72
2018-06-03T02:23:51.871Z,37.72
2018-06-03T02:24:04.305Z,37.72
2018-06-03T02:24:16.712Z,37.72
2018-06-03T02:24:29.123Z,37.72
2018-06-03T02:24:41.524Z,37.72
2018-06-03T02:24:53.937Z,37.72
2018-06-03T02:25:06.368Z,37.72
2018-06-03T02:25:18.770Z,37.72
2018-06-03T02:25:31.181Z,37.72
2018-06-03T02:25:43.596Z,37.72
2018-06-03T02:25:56.017Z,37.72
2018-06-03T02:26:08.439Z,37.72
2018-06-03T02:26:20.848Z,37.72
2018-06-03T02:26:33.266Z,37.72
2018-06-03T02:26:45.690Z,37.72
2018-06-03T02:26:58.110Z,37.72
2018-06-03T02:27:10.548Z,37.72
2018-06-03T02:27:22.985Z,37.72
2018-06-03T02:27:35.396Z,37.72
2018-06-03T02:27:47.843Z,37.72
2018-06-03T02:28:00.275Z,37.72
2018-06-03T02:28:12.747Z,37.72
2018-06-03T02:28:25.194Z,37.72
2018-06-03T02:28:37.606Z,37.72
2018-06-03T02:28:50.019Z,37.72
2018-06-03T02:29:02.423Z,37.72
2018-06-03T02:29:14.844Z,37.72
2018-06-03T02:29:27.247Z,37.72
2018-06-03T02:29:39.704Z,37.72
2018-06-03T02:29:52.128Z,37.72
2018-06-03T02:30:04.701Z,37.72
2018-06-03T02:30:17.169Z,37.72
2018-06-03T02:30:29.652Z,37.72
2018-06-03T02:30:42.082Z,37.72
2018-06-03T02:30:54.525Z,37.72
2018-06-03T02:31:06.992Z,37.72
2018-06-03T02:31:19.420Z,37.72
2018-06-03T02:31:31.855Z,37.72
2018-06-03T02:31:44.297Z,37.72
2018-06-03T02:31:56.719Z,37.72
2018-06-03T02:32:09.149Z,37.72
2018-06-03T02:32:21.634Z,37.72
2018-06-03T02:32:34.091Z,37.72
2018-06-03T02:32:46.546Z,37.72
2018-06-03T02:32:59.008Z,36.41
2018-06-03T02:33:11.481Z,36.41
2018-06-03T02:33:23.930Z,36.41
2018-06-03T02:33:36.371Z,36.41
2018-06-03T02:33:48.814Z,36.41
2018-06-03T02:34:01.253Z,36.41
2018-06-03T02:34:13.687Z,36.41
2018-06-03T02:34:26.127Z,36.41
2018-06-03T02:34:38.596Z,36.41
2018-06-03T02:34:51.023Z,36.41
2018-06-03T02:35:03.685Z,36.41
2018-06-03T02:35:16.123Z,36.41
2018-06-03T02:35:28.630Z,36.41
2018-06-03T02:35:41.068Z,36.41
2018-06-03T02:35:53.490Z,36.41
2018-06-03T02:36:05.929Z,36.41
2018-06-03T02:36:18.365Z,36.41
2018-06-03T02:36:30.802Z,36.41
2018-06-03T02:36:43.230Z,36.41
2018-06-03T02:36:55.651Z,36.41
2018-06-03T02:37:08.115Z,36.41
2018-06-03T02:37:20.547Z,36.41
2018-06-03T02:37:33.006Z,36.41
2018-06-03T02:37:45.425Z,36.41
2018-06-03T02:37:57.865Z,36.41
2018-06-03T02:38:10.308Z,36.41
2018-06-03T02:38:22.746Z,36.41
2018-06-03T02:38:35.179Z,36.41
2018-06-03T02:38:47.611Z,36.41
2018-06-03T02:39:00.042Z,36.41
2018-06-03T02:39:12.483Z,36.41
2018-06-03T02:39:24.964Z,36.41
2018-06-03T02:39:37.395Z,36.41
2018-06-03T02:39:49.835Z,36.41
2018-06-03T02:40:02.299Z,36.41
2018-06-03T02:40:14.711Z,36.41
2018-06-03T02:40:27.149Z,36.41
2018-06-03T02:40:39.585Z,36.41